Sidney Richland Municipal Airport Sidney US
ICAO: KSDY
IATA: SDY
Category: Medium
Scheduled Services: No

Elevation: 1985 ft
TransAlt. 18000 ft.

Airport Communications:
AWOS 3:119.275
GREAT FALLS RDO:123.65
CTAF/UNICOM:122.8

KSDY Zoom In..

Runways:

(A) RW 01 length 5705 ft width 100 ft
---- / hdg 15

(B) RW 11 length 4023 ft width 100 ft
---- / hdg 108

(C) RW 19 length 5705 ft width 100 ft
---- / hdg 195

(D) RW 29 length 4023 ft width 100 ft
---- / hdg 288

Location; KSDY
Day. 04 / Time. 13.56 Zulu
* Altimeter: 29.89
* Temperature: -05° c. -23°f.
* Wind from: 170° Speed 12 kn.
Dewpoint: -08° c.
Visibility: 10 Statute Miles.
Clouds: Clear (automated report).

KSDY 041356Z AUTO 17012KT 10SM CLR M05/M08 A2989 RMK AO2 SLP520 T10501083 FZRANO


Wind From 170°
Speed 12 kn.

 
 
jpsmedia worldairports.se 2020   terms of use